sensor_id;sensor_type;location;lat;lon;timestamp;pressure;altitude;pressure_sealevel;temperature;humidity
25130;BME280;13308;50.860;13.664;2022-11-20T06:55:47;96131.84;;;-6.52;100.00
25130;BME280;13308;50.860;13.664;2022-11-20T06:58:14;96130.09;;;-6.48;100.00
25130;BME280;13308;50.860;13.664;2022-11-20T07:00:40;96131.19;;;-6.49;100.00
25130;BME280;13308;50.860;13.664;2022-11-20T07:03:06;96125.06;;;-6.49;100.00
25130;BME280;13308;50.860;13.664;2022-11-20T07:05:32;96126.88;;;-6.41;100.00
25130;BME280;13308;50.860;13.664;2022-11-20T07:07:58;96112.09;;;-6.47;100.00
25130;BME280;13308;50.860;13.664;2022-11-20T07:10:24;96129.44;;;-6.45;100.00
25130;BME280;13308;50.860;13.664;2022-11-20T07:12:50;96127.78;;;-6.37;100.00
25130;BME280;13308;50.860;13.664;2022-11-20T07:15:17;96121.75;;;-6.34;100.00
25130;BME280;13308;50.860;13.664;2022-11-20T07:17:42;96124.38;;;-6.26;100.00
25130;BME280;13308;50.860;13.664;2022-11-20T07:20:08;96126.22;;;-6.18;100.00
25130;BME280;13308;50.860;13.664;2022-11-20T07:22:33;96128.22;;;-6.15;100.00
25130;BME280;13308;50.860;13.664;2022-11-20T07:24:59;96125.03;;;-6.08;100.00
25130;BME280;13308;50.860;13.664;2022-11-20T07:27:24;96120.69;;;-6.01;100.00
25130;BME280;13308;50.860;13.664;2022-11-20T07:29:49;96123.56;;;-5.85;100.00
25130;BME280;13308;50.860;13.664;2022-11-20T07:32:15;96119.31;;;-5.74;100.00
25130;BME280;13308;50.860;13.664;2022-11-20T07:34:40;96117.31;;;-5.65;100.00
25130;BME280;13308;50.860;13.664;2022-11-20T07:37:06;96115.97;;;-5.59;100.00
25130;BME280;13308;50.860;13.664;2022-11-20T07:39:31;96108.72;;;-5.47;100.00
25130;BME280;13308;50.860;13.664;2022-11-20T07:41:56;96107.41;;;-5.41;100.00
25130;BME280;13308;50.860;13.664;2022-11-20T07:44:22;96106.28;;;-5.28;100.00
25130;BME280;13308;50.860;13.664;2022-11-20T07:46:47;96114.78;;;-5.14;100.00
25130;BME280;13308;50.860;13.664;2022-11-20T07:49:12;96108.66;;;-5.02;100.00
25130;BME280;13308;50.860;13.664;2022-11-20T07:51:38;96115.38;;;-4.84;100.00
25130;BME280;13308;50.860;13.664;2022-11-20T07:54:03;96106.47;;;-4.73;100.00
25130;BME280;13308;50.860;13.664;2022-11-20T07:56:29;96108.34;;;-4.61;100.00
25130;BME280;13308;50.860;13.664;2022-11-20T07:58:54;96101.84;;;-4.48;100.00
25130;BME280;13308;50.860;13.664;2022-11-20T08:01:19;96106.41;;;-4.37;100.00
25130;BME280;13308;50.860;13.664;2022-11-20T08:03:44;96099.00;;;-4.28;100.00
25130;BME280;13308;50.860;13.664;2022-11-20T08:06:10;96103.22;;;-4.15;100.00
25130;BME280;13308;50.860;13.664;2022-11-20T08:08:35;96108.09;;;-4.05;100.00
25130;BME280;13308;50.860;13.664;2022-11-20T08:11:01;96110.06;;;-3.90;100.00
25130;BME280;13308;50.860;13.664;2022-11-20T08:13:44;96107.06;;;-3.73;100.00
25130;BME280;13308;50.860;13.664;2022-11-20T08:16:28;96116.56;;;-3.48;100.00
25130;BME280;13308;50.860;13.664;2022-11-20T08:18:54;96104.25;;;-3.18;100.00
25130;BME280;13308;50.860;13.664;2022-11-20T08:21:19;96106.94;;;-3.18;100.00
25130;BME280;13308;50.860;13.664;2022-11-20T08:23:45;96099.72;;;-2.98;100.00
25130;BME280;13308;50.860;13.664;2022-11-20T08:26:10;96108.41;;;-2.89;99.29
25130;BME280;13308;50.860;13.664;2022-11-20T08:28:35;96112.31;;;-2.87;99.69
25130;BME280;13308;50.860;13.664;2022-11-20T08:31:02;96107.78;;;-2.67;99.64
25130;BME280;13308;50.860;13.664;2022-11-20T08:33:28;96113.38;;;-2.41;98.57
25130;BME280;13308;50.860;13.664;2022-11-20T08:36:00;96115.25;;;-2.26;97.04
25130;BME280;13308;50.860;13.664;2022-11-20T08:38:26;96110.22;;;-2.09;94.83
25130;BME280;13308;50.860;13.664;2022-11-20T08:40:51;96104.19;;;-2.02;94.60
25130;BME280;13308;50.860;13.664;2022-11-20T08:43:35;96092.22;;;-1.82;94.11
25130;BME280;13308;50.860;13.664;2022-11-20T08:46:01;96093.72;;;-1.66;92.31
25130;BME280;13308;50.860;13.664;2022-11-20T08:48:26;96093.50;;;-1.57;92.85
25130;BME280;13308;50.860;13.664;2022-11-20T08:50:51;96085.88;;;-1.52;92.21
25130;BME280;13308;50.860;13.664;2022-11-20T08:53:17;96083.22;;;-1.26;91.23
25130;BME280;13308;50.860;13.664;2022-11-20T08:55:42;96081.78;;;-1.20;91.61
25130;BME280;13308;50.860;13.664;2022-11-20T08:58:07;96083.63;;;-0.79;88.81
25130;BME280;13308;50.860;13.664;2022-11-20T09:00:34;96079.50;;;-0.69;88.54
25130;BME280;13308;50.860;13.664;2022-11-20T09:02:59;96079.25;;;-0.35;87.41
25130;BME280;13308;50.860;13.664;2022-11-20T09:05:26;96080.03;;;0.28;85.80
25130;BME280;13308;50.860;13.664;2022-11-20T09:07:51;96078.38;;;0.53;82.93
25130;BME280;13308;50.860;13.664;2022-11-20T09:10:17;96070.72;;;1.02;80.61
25130;BME280;13308;50.860;13.664;2022-11-20T09:12:42;96072.66;;;1.52;78.41
25130;BME280;13308;50.860;13.664;2022-11-20T09:15:08;96070.50;;;1.85;75.82
25130;BME280;13308;50.860;13.664;2022-11-20T09:17:33;96072.50;;;1.92;74.63
25130;BME280;13308;50.860;13.664;2022-11-20T09:19:58;96074.63;;;2.44;72.86
25130;BME280;13308;50.860;13.664;2022-11-20T09:22:24;96071.97;;;2.58;72.58
25130;BME280;13308;50.860;13.664;2022-11-20T09:24:49;96082.91;;;2.82;69.46
25130;BME280;13308;50.860;13.664;2022-11-20T09:27:14;96075.56;;;3.18;70.79
25130;BME280;13308;50.860;13.664;2022-11-20T09:29:44;96079.72;;;4.10;67.42
25130;BME280;13308;50.860;13.664;2022-11-20T09:32:09;96088.66;;;4.24;65.52
25130;BME280;13308;50.860;13.664;2022-11-20T09:34:35;96095.47;;;4.74;58.82
25130;BME280;13308;50.860;13.664;2022-11-20T09:37:00;96101.03;;;5.18;58.17
25130;BME280;13308;50.860;13.664;2022-11-20T09:39:25;96108.97;;;5.57;59.11
25130;BME280;13308;50.860;13.664;2022-11-20T09:55:21;96097.50;;;1.57;84.68
25130;BME280;13308;50.860;13.664;2022-11-20T09:57:48;96099.34;;;0.56;91.26
25130;BME280;13308;50.860;13.664;2022-11-20T10:00:16;96094.03;;;0.30;95.37
25130;BME280;13308;50.860;13.664;2022-11-20T10:02:51;96088.06;;;0.17;97.41
25130;BME280;13308;50.860;13.664;2022-11-20T10:05:20;96083.03;;;0.19;98.52
25130;BME280;13308;50.860;13.664;2022-11-20T10:10:42;96073.31;;;0.48;97.80
25130;BME280;13308;50.860;13.664;2022-11-20T10:13:29;96075.56;;;0.42;98.13
25130;BME280;13308;50.860;13.664;2022-11-20T10:19:14;96060.50;;;0.85;96.03
25130;BME280;13308;50.860;13.664;2022-11-20T10:24:43;96048.19;;;1.52;93.21
25130;BME280;13308;50.860;13.664;2022-11-20T10:30:09;96032.94;;;2.05;90.64
25130;BME280;13308;50.860;13.664;2022-11-20T10:32:42;96042.06;;;2.72;88.78
25130;BME280;13308;50.860;13.664;2022-11-20T10:37:44;96058.06;;;3.47;84.19
25130;BME280;13308;50.860;13.664;2022-11-20T10:40:27;96068.84;;;3.96;81.99
25130;BME280;13308;50.860;13.664;2022-11-20T10:42:57;96069.84;;;4.44;78.44
25130;BME280;13308;50.860;13.664;2022-11-20T10:47:51;96070.88;;;4.74;77.19
25130;BME280;13308;50.860;13.664;2022-11-20T10:50:20;96070.78;;;4.06;77.30
25130;BME280;13308;50.860;13.664;2022-11-20T10:55:27;96056.84;;;3.62;81.53
25130;BME280;13308;50.860;13.664;2022-11-20T10:58:16;96053.78;;;3.25;83.34
25130;BME280;13308;50.860;13.664;2022-11-20T11:00:46;96063.84;;;3.59;81.97
25130;BME280;13308;50.860;13.664;2022-11-20T11:03:25;96062.28;;;3.79;81.55
25130;BME280;13308;50.860;13.664;2022-11-20T11:06:02;96070.13;;;3.07;82.36
25130;BME280;13308;50.860;13.664;2022-11-20T11:08:36;96061.91;;;2.69;86.25
25130;BME280;13308;50.860;13.664;2022-11-20T11:11:15;96063.25;;;2.07;86.66
25130;BME280;13308;50.860;13.664;2022-11-20T11:13:43;96059.00;;;2.13;87.44
25130;BME280;13308;50.860;13.664;2022-11-20T11:16:20;96057.53;;;1.54;91.06
25130;BME280;13308;50.860;13.664;2022-11-20T11:18:45;96052.41;;;1.42;91.99
25130;BME280;13308;50.860;13.664;2022-11-20T11:21:11;96054.97;;;1.21;93.81
25130;BME280;13308;50.860;13.664;2022-11-20T11:23:39;96055.22;;;1.06;94.95
25130;BME280;13308;50.860;13.664;2022-11-20T11:26:23;96039.66;;;0.96;96.78
25130;BME280;13308;50.860;13.664;2022-11-20T11:31:34;96034.84;;;0.79;98.21
25130;BME280;13308;50.860;13.664;2022-11-20T11:34:06;96026.16;;;0.63;99.91
25130;BME280;13308;50.860;13.664;2022-11-20T11:36:33;96023.13;;;0.68;100.00
25130;BME280;13308;50.860;13.664;2022-11-20T11:39:00;96004.53;;;0.70;100.00
25130;BME280;13308;50.860;13.664;2022-11-20T11:41:30;96014.59;;;0.66;100.00
25130;BME280;13308;50.860;13.664;2022-11-20T11:44:00;95995.97;;;0.64;100.00
25130;BME280;13308;50.860;13.664;2022-11-20T11:46:53;95993.81;;;0.84;100.00
25130;BME280;13308;50.860;13.664;2022-11-20T11:49:20;95996.25;;;0.99;100.00
25130;BME280;13308;50.860;13.664;2022-11-20T11:52:00;96001.09;;;1.27;100.00
25130;BME280;13308;50.860;13.664;2022-11-20T11:54:35;96000.84;;;1.53;100.00
25130;BME280;13308;50.860;13.664;2022-11-20T11:57:07;95992.00;;;1.66;100.00
25130;BME280;13308;50.860;13.664;2022-11-20T11:59:50;95995.09;;;1.65;100.00
25130;BME280;13308;50.860;13.664;2022-11-20T12:02:38;95997.38;;;1.56;100.00
25130;BME280;13308;50.860;13.664;2022-11-20T12:08:03;95987.59;;;1.41;100.00
25130;BME280;13308;50.860;13.664;2022-11-20T12:13:20;95973.16;;;1.30;100.00
25130;BME280;13308;50.860;13.664;2022-11-20T12:15:47;95969.31;;;1.31;100.00
25130;BME280;13308;50.860;13.664;2022-11-20T12:18:18;95977.91;;;1.43;100.00
25130;BME280;13308;50.860;13.664;2022-11-20T12:21:11;95969.38;;;1.45;100.00
25130;BME280;13308;50.860;13.664;2022-11-20T12:23:56;95970.22;;;1.59;100.00
25130;BME280;13308;50.860;13.664;2022-11-20T12:26:40;95970.91;;;1.39;100.00
25130;BME280;13308;50.860;13.664;2022-11-20T12:29:17;95974.47;;;1.50;100.00
25130;BME280;13308;50.860;13.664;2022-11-20T12:34:51;95975.53;;;1.35;100.00
25130;BME280;13308;50.860;13.664;2022-11-20T12:37:30;95976.97;;;1.18;100.00
25130;BME280;13308;50.860;13.664;2022-11-20T12:40:03;95973.13;;;1.23;100.00
25130;BME280;13308;50.860;13.664;2022-11-20T12:42:47;95969.97;;;1.14;100.00
25130;BME280;13308;50.860;13.664;2022-11-20T12:48:38;95971.56;;;1.22;100.00
25130;BME280;13308;50.860;13.664;2022-11-20T12:51:57;95967.31;;;1.24;100.00
25130;BME280;13308;50.860;13.664;2022-11-20T12:54:24;95960.69;;;1.15;100.00
25130;BME280;13308;50.860;13.664;2022-11-20T13:05:35;95961.38;;;1.05;100.00
25130;BME280;13308;50.860;13.664;2022-11-20T13:08:02;95951.34;;;1.09;100.00
25130;BME280;13308;50.860;13.664;2022-11-20T13:10:31;95952.84;;;1.03;100.00
25130;BME280;13308;50.860;13.664;2022-11-20T13:13:12;95955.94;;;1.05;100.00
25130;BME280;13308;50.860;13.664;2022-11-20T13:15:55;95961.38;;;1.05;100.00
25130;BME280;13308;50.860;13.664;2022-11-20T13:18:22;95964.03;;;0.98;100.00
25130;BME280;13308;50.860;13.664;2022-11-20T13:20:48;95955.28;;;0.64;100.00
25130;BME280;13308;50.860;13.664;2022-11-20T13:23:32;95960.66;;;0.61;100.00
25130;BME280;13308;50.860;13.664;2022-11-20T13:26:06;95952.59;;;0.71;100.00
25130;BME280;13308;50.860;13.664;2022-11-20T13:28:38;95946.88;;;0.80;100.00
25130;BME280;13308;50.860;13.664;2022-11-20T13:31:11;95943.00;;;0.81;100.00
25130;BME280;13308;50.860;13.664;2022-11-20T13:33:52;95946.84;;;0.76;100.00
25130;BME280;13308;50.860;13.664;2022-11-20T13:36:25;95958.44;;;0.73;100.00
25130;BME280;13308;50.860;13.664;2022-11-20T13:38:52;95946.44;;;0.74;100.00
25130;BME280;13308;50.860;13.664;2022-11-20T13:41:33;95942.56;;;0.72;100.00
25130;BME280;13308;50.860;13.664;2022-11-20T13:44:33;95944.09;;;0.73;100.00
25130;BME280;13308;50.860;13.664;2022-11-20T13:47:00;95944.44;;;0.68;100.00
25130;BME280;13308;50.860;13.664;2022-11-20T13:49:34;95939.47;;;0.77;100.00
25130;BME280;13308;50.860;13.664;2022-11-20T13:52:42;95940.56;;;0.65;100.00
25130;BME280;13308;50.860;13.664;2022-11-20T13:55:16;95943.94;;;0.55;100.00
25130;BME280;13308;50.860;13.664;2022-11-20T14:00:28;95950.16;;;0.56;100.00
25130;BME280;13308;50.860;13.664;2022-11-20T14:03:08;95954.09;;;0.62;100.00
25130;BME280;13308;50.860;13.664;2022-11-20T14:05:39;95959.50;;;0.62;100.00
25130;BME280;13308;50.860;13.664;2022-11-20T14:08:10;95946.69;;;0.59;100.00
25130;BME280;13308;50.860;13.664;2022-11-20T14:10:38;95947.50;;;0.63;100.00
25130;BME280;13308;50.860;13.664;2022-11-20T14:13:20;95957.19;;;0.64;100.00
25130;BME280;13308;50.860;13.664;2022-11-20T14:15:46;95952.53;;;0.61;100.00
25130;BME280;13308;50.860;13.664;2022-11-20T14:18:20;95959.47;;;0.55;100.00
25130;BME280;13308;50.860;13.664;2022-11-20T14:20:47;95956.75;;;0.55;100.00
25130;BME280;13308;50.860;13.664;2022-11-20T14:23:12;95954.00;;;0.51;100.00
25130;BME280;13308;50.860;13.664;2022-11-20T14:25:48;95946.59;;;0.48;100.00
25130;BME280;13308;50.860;13.664;2022-11-20T14:28:25;95951.59;;;0.43;100.00
25130;BME280;13308;50.860;13.664;2022-11-20T14:30:51;95948.94;;;0.50;100.00
25130;BME280;13308;50.860;13.664;2022-11-20T14:33:17;95951.66;;;0.50;100.00
25130;BME280;13308;50.860;13.664;2022-11-20T14:35:47;95955.53;;;0.49;100.00
25130;BME280;13308;50.860;13.664;2022-11-20T14:38:16;95956.31;;;0.53;100.00
25130;BME280;13308;50.860;13.664;2022-11-20T14:40:42;95957.47;;;0.52;100.00
25130;BME280;13308;50.860;13.664;2022-11-20T14:43:25;95960.19;;;0.52;100.00
25130;BME280;13308;50.860;13.664;2022-11-20T14:46:03;95956.75;;;0.55;100.00
25130;BME280;13308;50.860;13.664;2022-11-20T14:48:34;95950.09;;;0.49;100.00
25130;BME280;13308;50.860;13.664;2022-11-20T14:51:02;95955.13;;;0.50;100.00
25130;BME280;13308;50.860;13.664;2022-11-20T14:53:27;95945.44;;;0.49;100.00
25130;BME280;13308;50.860;13.664;2022-11-20T14:56:00;95953.28;;;0.58;100.00
25130;BME280;13308;50.860;13.664;2022-11-20T14:58:31;95942.25;;;0.37;100.00
25130;BME280;13308;50.860;13.664;2022-11-20T15:01:03;95942.13;;;0.26;100.00
25130;BME280;13308;50.860;13.664;2022-11-20T15:03:37;95934.28;;;0.14;100.00
25130;BME280;13308;50.860;13.664;2022-11-20T15:06:05;95933.97;;;0.23;100.00
25130;BME280;13308;50.860;13.664;2022-11-20T15:08:30;95939.75;;;0.18;100.00
25130;BME280;13308;50.860;13.664;2022-11-20T15:10:56;95938.13;;;0.10;100.00
25130;BME280;13308;50.860;13.664;2022-11-20T15:13:33;95944.28;;;0.07;100.00
25130;BME280;13308;50.860;13.664;2022-11-20T15:16:00;95945.88;;;0.11;100.00
25130;BME280;13308;50.860;13.664;2022-11-20T15:18:30;95943.91;;;0.08;100.00
25130;BME280;13308;50.860;13.664;2022-11-20T15:20:57;95949.38;;;0.12;100.00
25130;BME280;13308;50.860;13.664;2022-11-20T15:23:24;95942.75;;;0.06;100.00
25130;BME280;13308;50.860;13.664;2022-11-20T15:25:51;95945.81;;;0.04;100.00
25130;BME280;13308;50.860;13.664;2022-11-20T15:28:18;95941.09;;;-0.02;100.00
25130;BME280;13308;50.860;13.664;2022-11-20T15:30:45;95944.94;;;-0.07;100.00
25130;BME280;13308;50.860;13.664;2022-11-20T15:33:11;95943.69;;;-0.13;100.00
25130;BME280;13308;50.860;13.664;2022-11-20T15:35:37;95953.38;;;-0.12;100.00
25130;BME280;13308;50.860;13.664;2022-11-20T15:38:03;95943.66;;;-0.16;100.00
25130;BME280;13308;50.860;13.664;2022-11-20T15:40:28;95949.47;;;-0.14;100.00
25130;BME280;13308;50.860;13.664;2022-11-20T15:42:54;95952.13;;;-0.21;100.00
25130;BME280;13308;50.860;13.664;2022-11-20T15:46:10;95951.28;;;-0.25;100.00
25130;BME280;13308;50.860;13.664;2022-11-20T15:48:44;95951.72;;;-0.23;100.00
25130;BME280;13308;50.860;13.664;2022-11-20T15:53:38;95952.84;;;-0.24;100.00
25130;BME280;13308;50.860;13.664;2022-11-20T15:56:05;95951.28;;;-0.25;100.00
25130;BME280;13308;50.860;13.664;2022-11-20T15:58:31;95948.50;;;-0.32;100.00
25130;BME280;13308;50.860;13.664;2022-11-20T16:00:56;95945.41;;;-0.34;100.00
25130;BME280;13308;50.860;13.664;2022-11-20T16:03:22;95949.22;;;-0.38;100.00
25130;BME280;13308;50.860;13.664;2022-11-20T16:05:48;95941.47;;;-0.40;100.00
25130;BME280;13308;50.860;13.664;2022-11-20T16:08:13;95937.56;;;-0.42;100.00
25130;BME280;13308;50.860;13.664;2022-11-20T16:10:39;95939.75;;;-0.51;100.00
25130;BME280;13308;50.860;13.664;2022-11-20T16:13:11;95942.09;;;-0.50;100.00
25130;BME280;13308;50.860;13.664;2022-11-20T16:15:57;95941.22;;;-0.57;100.00
25130;BME280;13308;50.860;13.664;2022-11-20T16:18:23;95938.44;;;-0.64;100.00
25130;BME280;13308;50.860;13.664;2022-11-20T16:20:52;95938.09;;;-0.63;100.00
25130;BME280;13308;50.860;13.664;2022-11-20T16:23:18;95939.56;;;-0.69;100.00
25130;BME280;13308;50.860;13.664;2022-11-20T16:25:44;95938.72;;;-0.73;100.00
25130;BME280;13308;50.860;13.664;2022-11-20T16:28:10;95944.97;;;-0.69;100.00
25130;BME280;13308;50.860;13.664;2022-11-20T16:30:35;95939.78;;;-0.81;100.00
25130;BME280;13308;50.860;13.664;2022-11-20T16:33:01;95938.00;;;-0.70;100.00
25130;BME280;13308;50.860;13.664;2022-11-20T16:35:27;95951.94;;;-0.68;100.00
25130;BME280;13308;50.860;13.664;2022-11-20T16:37:54;95952.53;;;-0.81;100.00
25130;BME280;13308;50.860;13.664;2022-11-20T16:40:20;95939.66;;;-0.91;100.00
25130;BME280;13308;50.860;13.664;2022-11-20T16:42:45;95950.28;;;-0.76;100.00
25130;BME280;13308;50.860;13.664;2022-11-20T16:45:10;95947.06;;;-0.85;100.00
25130;BME280;13308;50.860;13.664;2022-11-20T16:47:36;95946.25;;;-0.89;100.00
25130;BME280;13308;50.860;13.664;2022-11-20T16:50:03;95952.78;;;-0.90;100.00
25130;BME280;13308;50.860;13.664;2022-11-20T16:52:29;95948.53;;;-0.91;100.00
25130;BME280;13308;50.860;13.664;2022-11-20T16:54:55;95940.78;;;-0.92;100.00
25130;BME280;13308;50.860;13.664;2022-11-20T16:57:20;95938.44;;;-0.94;100.00
25130;BME280;13308;50.860;13.664;2022-11-20T16:59:47;95939.59;;;-0.95;100.00
25130;BME280;13308;50.860;13.664;2022-11-20T17:02:13;95941.88;;;-0.97;100.00
25130;BME280;13308;50.860;13.664;2022-11-20T17:04:38;95939.25;;;-0.90;100.00
25130;BME280;13308;50.860;13.664;2022-11-20T17:07:03;95953.84;;;-0.98;100.00
25130;BME280;13308;50.860;13.664;2022-11-20T17:09:29;95946.47;;;-1.01;100.00
25130;BME280;13308;50.860;13.664;2022-11-20T17:11:54;95942.66;;;-0.96;100.00
25130;BME280;13308;50.860;13.664;2022-11-20T17:14:19;95944.22;;;-0.95;100.00
25130;BME280;13308;50.860;13.664;2022-11-20T17:16:45;95939.81;;;-1.07;100.00
25130;BME280;13308;50.860;13.664;2022-11-20T17:19:13;95940.31;;;-0.98;100.00
25130;BME280;13308;50.860;13.664;2022-11-20T17:21:39;95944.38;;;-1.11;100.00
25130;BME280;13308;50.860;13.664;2022-11-20T17:24:06;95947.50;;;-1.09;100.00
25130;BME280;13308;50.860;13.664;2022-11-20T17:26:33;95938.41;;;-0.97;100.00
25130;BME280;13308;50.860;13.664;2022-11-20T17:29:00;95934.59;;;-0.93;100.00
25130;BME280;13308;50.860;13.664;2022-11-20T17:31:27;95934.72;;;-1.12;100.00
25130;BME280;13308;50.860;13.664;2022-11-20T17:33:53;95934.34;;;-1.10;100.00
25130;BME280;13308;50.860;13.664;2022-11-20T17:36:19;95931.97;;;-1.15;100.00
25130;BME280;13308;50.860;13.664;2022-11-20T17:38:44;95918.75;;;-1.20;100.00
25130;BME280;13308;50.860;13.664;2022-11-20T17:41:12;95930.28;;;-1.23;100.00
25130;BME280;13308;50.860;13.664;2022-11-20T17:43:39;95932.94;;;-1.27;100.00
25130;BME280;13308;50.860;13.664;2022-11-20T17:46:16;95932.44;;;-1.36;100.00
25130;BME280;13308;50.860;13.664;2022-11-20T17:48:42;95930.81;;;-1.40;100.00
25130;BME280;13308;50.860;13.664;2022-11-20T17:51:16;95932.00;;;-1.38;100.00
25130;BME280;13308;50.860;13.664;2022-11-20T17:53:45;95929.78;;;-1.32;100.00
25130;BME280;13308;50.860;13.664;2022-11-20T17:56:11;95932.09;;;-1.31;100.00
25130;BME280;13308;50.860;13.664;2022-11-20T17:58:55;95924.09;;;-1.50;100.00
25130;BME280;13308;50.860;13.664;2022-11-20T18:01:21;95922.47;;;-1.54;100.00
25130;BME280;13308;50.860;13.664;2022-11-20T18:03:47;95916.81;;;-1.46;100.00
25130;BME280;13308;50.860;13.664;2022-11-20T18:06:18;95917.88;;;-1.54;100.00
25130;BME280;13308;50.860;13.664;2022-11-20T18:08:44;95903.56;;;-1.54;100.00
25130;BME280;13308;50.860;13.664;2022-11-20T18:13:40;95896.44;;;-1.66;100.00
25130;BME280;13308;50.860;13.664;2022-11-20T18:16:26;95900.41;;;-1.60;100.00
25130;BME280;13308;50.860;13.664;2022-11-20T18:18:55;95903.41;;;-1.65;100.00
25130;BME280;13308;50.860;13.664;2022-11-20T18:21:22;95912.97;;;-1.71;100.00
25130;BME280;13308;50.860;13.664;2022-11-20T18:23:47;95902.50;;;-1.72;100.00
25130;BME280;13308;50.860;13.664;2022-11-20T18:26:12;95896.44;;;-1.66;100.00
25130;BME280;13308;50.860;13.664;2022-11-20T18:28:38;95910.09;;;-1.81;100.00
25130;BME280;13308;50.860;13.664;2022-11-20T18:31:07;95910.25;;;-1.71;100.00
25130;BME280;13308;50.860;13.664;2022-11-20T18:33:33;95903.84;;;-1.85;100.00
25130;BME280;13308;50.860;13.664;2022-11-20T18:36:10;95901.69;;;-1.99;100.00
25130;BME280;13308;50.860;13.664;2022-11-20T18:38:41;95908.16;;;-2.03;100.00
25130;BME280;13308;50.860;13.664;2022-11-20T18:41:10;95906.84;;;-2.13;100.00
25130;BME280;13308;50.860;13.664;2022-11-20T18:43:56;95903.41;;;-2.10;100.00
25130;BME280;13308;50.860;13.664;2022-11-20T18:46:40;95894.91;;;-2.12;100.00
25130;BME280;13308;50.860;13.664;2022-11-20T18:49:06;95895.94;;;-2.20;100.00
25130;BME280;13308;50.860;13.664;2022-11-20T18:51:32;95898.31;;;-2.15;100.00
25130;BME280;13308;50.860;13.664;2022-11-20T18:53:57;95894.34;;;-2.21;100.00
25130;BME280;13308;50.860;13.664;2022-11-20T18:56:22;95896.91;;;-2.28;100.00
25130;BME280;13308;50.860;13.664;2022-11-20T18:58:48;95894.50;;;-2.33;100.00
25130;BME280;13308;50.860;13.664;2022-11-20T19:01:13;95896.81;;;-2.35;100.00
25130;BME280;13308;50.860;13.664;2022-11-20T19:03:38;95889.72;;;-2.43;100.00
25130;BME280;13308;50.860;13.664;2022-11-20T19:06:04;95891.16;;;-2.49;100.00
25130;BME280;13308;50.860;13.664;2022-11-20T19:08:29;95877.94;;;-2.54;100.00
25130;BME280;13308;50.860;13.664;2022-11-20T19:11:04;95880.66;;;-2.54;100.00
25130;BME280;13308;50.860;13.664;2022-11-20T19:13:31;95885.69;;;-2.52;100.00
25130;BME280;13308;50.860;13.664;2022-11-20T19:16:21;95874.75;;;-2.59;100.00
25130;BME280;13308;50.860;13.664;2022-11-20T19:18:49;95867.50;;;-2.55;100.00
25130;BME280;13308;50.860;13.664;2022-11-20T19:21:17;95872.03;;;-2.59;100.00
25130;BME280;13308;50.860;13.664;2022-11-20T19:23:42;95871.28;;;-2.60;100.00
